METAR Data
IDs: Format: Raw Decoded Include TAF

Data at: 1022 UTC 18 Jan 2022

KGWR 181015Z AUTO 21015KT 10SM CLR M01/M01 A2943 RMK A01
KGWR 180955Z AUTO 21012KT 10SM CLR M02/M02 A2945 RMK A01
KGWR 180935Z AUTO 21014KT 10SM CLR M01/M01 A2946 RMK A01
KGWR 180915Z AUTO 21016G21KT 10SM CLR M01/M01 A2947 RMK A01
KGWR 180855Z AUTO 22017KT 10SM CLR M01/M01 A2948 RMK A01
KGWR 180835Z AUTO 22013KT 10SM CLR M02/M02 A2950 RMK A01
KGWR 180815Z AUTO 21011KT 10SM FEW090 SCT120 M03/M03 A2951 RMK A01
KGWR 180755Z AUTO 22010KT 10SM BKN085 BKN120 M05/M05 A2952 RMK A01
KGWR 180735Z AUTO 20007KT 10SM SCT085 OVC110 M06/M06 A2953 RMK A01
KGWR 180715Z AUTO 00000KT 10SM OVC110 M06/M06 A2954 RMK A01
KGWR 180655Z AUTO 23003KT 10SM OVC100 M06/M06 A2957 RMK A01
KGWR 180635Z AUTO 00000KT 9SM OVC100 M06/M06 A2957 RMK A01
KGWR 180615Z AUTO 22005KT 6SM BR BKN110 M06/M06 A2959 RMK A01
KGWR 180555Z AUTO 00000KT 4SM BR BKN110 M06/M06 A2960 RMK A01
KGWR 180535Z AUTO 00000KT 5SM BR BKN120 M07/M07 A2961 RMK A01
KGWR 180515Z AUTO 20005KT 5SM BR OVC120 M06/M06 A2961 RMK A01
KGWR 180455Z AUTO 00000KT 5SM BR BKN120 M07/M07 A2962 RMK A01
KGWR 180435Z AUTO 16007KT 3SM BR CLR M07/M07 A2963 RMK A01
KGWR 180415Z AUTO 14005KT 4SM BR SCT090 SCT120 M06/M06 A2964 RMK A01
KGWR 180355Z AUTO 09006KT 6SM BR OVC085 M06/M06 A2966 RMK A01
KGWR 180335Z AUTO 13004KT 4SM BR OVC090 M07/M07 A2967 RMK A01
KGWR 180315Z AUTO 13006KT 1 1/2SM BR OVC090 M07/M07 A2968 RMK A01
KGWR 180255Z AUTO 13006KT 1/4SM FZFG OVC090 M07/M07 A2969 RMK A01
KGWR 180235Z AUTO 09004KT 2SM BR FEW019 BKN100 M07/M07 A2971 RMK A01
KGWR 180215Z AUTO 09007KT 2 1/2SM BR SCT019 M07/M07 A2971 RMK A01
KGWR 180155Z AUTO 06007KT 6SM BR CLR M07/M07 A2973 RMK A01
KGWR 180135Z AUTO 07006KT 8SM CLR M06/M06 A2974 RMK A01
KGWR 180115Z AUTO 04006KT 9SM CLR M06/M06 A2974 RMK A01
KGWR 180055Z AUTO 08006KT 10SM CLR M06/M06 A2974 RMK A01
KGWR 180035Z AUTO 11007KT 10SM CLR M05/M05 A2973 RMK A01
KGWR 180015Z AUTO 10009KT 10SM CLR M04/M04 A2974 RMK A01
KGWR 172355Z AUTO 10008KT 10SM SCT075 M04/M04 A2974 RMK A01
KGWR 172335Z AUTO 10007KT 10SM BKN075 M04/M04 A2974 RMK A01
KGWR 172315Z AUTO 11008KT 8SM OVC075 M03/M03 A2974 RMK A01
KGWR 172255Z AUTO 10007KT 9SM OVC075 M03/M03 A2975 RMK A01
KGWR 172235Z AUTO 08008KT 9SM BKN070 BKN085 M03/M03 A2975 RMK A01
KGWR 172215Z AUTO 10008KT 8SM BKN085 M02/M02 A2974 RMK A01
KGWR 172155Z AUTO 08008KT 10SM OVC085 M02/M02 A2974 RMK A01
KGWR 172135Z AUTO 07007KT 10SM BKN090 M01/M01 A2975 RMK A01
KGWR 172115Z AUTO 06006KT 10SM FEW090 M01/M01 A2975 RMK A01
KGWR 172055Z AUTO 00000KT 10SM FEW075 M00/M00 A2975 RMK A01
KGWR 172035Z AUTO 07003KT 10SM BKN075 M00/M00 A2975 RMK A01
KGWR 172015Z AUTO 20004KT 10SM OVC070 M00/M00 A2975 RMK A01
KGWR 171955Z AUTO 21005KT 10SM OVC070 M01/M01 A2974 RMK A01
KGWR 171935Z AUTO 21005KT 10SM OVC070 M01/M01 A2975 RMK A01
KGWR 171915Z AUTO 20004KT 10SM OVC070 M01/M01 A2975 RMK A01
KGWR 171855Z AUTO 23004KT 10SM OVC070 M01/M01 A2979 RMK A01
KGWR 171835Z AUTO 22005KT 10SM OVC065 M01/M01 A2977 RMK A01
KGWR 171815Z AUTO 24007KT 10SM OVC065 M02/M02 A2978 RMK A01
KGWR 171755Z AUTO 24006KT 10SM OVC065 M02/M02 A2978 RMK A01
KGWR 171735Z AUTO 23010KT 10SM OVC070 M02/M02 A2980 RMK A01
KGWR 171715Z AUTO 22010KT 10SM OVC075 M03/M03 A2980 RMK A01
KGWR 171655Z AUTO 22009KT 10SM OVC070 M03/M03 A2980 RMK A01
KGWR 171635Z AUTO 22012KT 10SM OVC070 M03/M03 A2980 RMK A01
KGWR 171615Z AUTO 22013KT 10SM BKN075 OVC080 M04/M04 A2980 RMK A01
KGWR 171555Z AUTO 21009KT 9SM OVC080 M04/M04 A2981 RMK A01
KGWR 171535Z AUTO 22007KT 10SM SCT075 OVC090 M04/M04 A2981 RMK A01
KGWR 171515Z AUTO 22007KT 10SM OVC090 M05/M05 A2980 RMK A01
KGWR 171455Z AUTO 22010KT 8SM FEW075 BKN100 OVC120 M05/M05 A2980 RMK A01
KGWR 171435Z AUTO 22012KT 8SM SCT085 OVC110 M05/M05 A2981 RMK A01
KGWR 171415Z AUTO 22012KT 7SM SCT070 BKN085 OVC110 M05/M05 A2980 RMK A01
KGWR 171355Z AUTO 22010KT 8SM OVC070 M05/M05 A2981 RMK A01
KGWR 171335Z AUTO 22009KT 10SM BKN060 OVC075 M05/M05 A2981 RMK A01
KGWR 171315Z AUTO 22008KT 10SM BKN065 OVC075 M05/M05 A2982 RMK A01
KGWR 171255Z AUTO 23008KT 10SM BKN075 OVC090 M05/M05 A2982 RMK A01
KGWR 171235Z AUTO 24008KT 10SM FEW080 BKN095 OVC110 M05/M05 A2982 RMK A01
KGWR 171215Z AUTO 25011KT 10SM OVC090 M05/M05 A2982 RMK A01
KGWR 171155Z AUTO 25009KT 10SM FEW075 OVC090 M05/M05 A2981 RMK A01
KGWR 171135Z AUTO 24010KT 10SM FEW075 SCT085 OVC110 M05/M05 A2982 RMK A01
KGWR 171115Z AUTO 24011KT 9SM SCT090 BKN120 M05/M05 A2982 RMK A01
KGWR 171055Z AUTO 24011KT 10SM SCT100 SCT120 M05/M05 A2982 RMK A01
KGWR 171035Z AUTO 24011KT 10SM BKN110 M05/M05 A2982 RMK A01
KGWR 171015Z AUTO 24010KT 10SM BKN120 M06/M06 A2983 RMK A01
KGWR 170955Z AUTO 25012KT 10SM FEW120 M06/M06 A2984 RMK A01
KGWR 170935Z AUTO 25010KT 10SM CLR M06/M06 A2985 RMK A01
KGWR 170915Z AUTO 24010KT 10SM FEW028 M06/M06 A2986 RMK A01
KGWR 170855Z AUTO 25009KT 10SM FEW027 SCT033 M07/M07 A2986 RMK A01
KGWR 170835Z AUTO 25008KT 10SM CLR M06/M06 A2987 RMK A01
KGWR 170815Z AUTO 25008KT 10SM FEW016 M05/M05 A2987 RMK A01
KGWR 170755Z AUTO 23007KT 10SM BKN017 BKN025 M04/M04 A2987 RMK A01
KGWR 170735Z AUTO 22008KT 10SM OVC024 M04/M04 A2988 RMK A01
KGWR 170715Z AUTO 23008KT 10SM OVC025 M03/M03 A2989 RMK A01
KGWR 170655Z AUTO 23007KT 10SM FEW019 OVC025 M02/M02 A2989 RMK A01
KGWR 170635Z AUTO 23008KT 10SM OVC020 M02/M02 A2990 RMK A01
KGWR 170615Z AUTO 23008KT 10SM OVC022 M02/M02 A2991 RMK A01
KGWR 170555Z AUTO 24009KT 10SM BKN022 OVC047 M02/M02 A2992 RMK A01
KGWR 170535Z AUTO 24008KT 10SM OVC023 M02/M02 A2992 RMK A01
KGWR 170515Z AUTO 23008KT 10SM OVC025 M03/M03 A2993 RMK A01
KGWR 170455Z AUTO 22008KT 10SM OVC025 M03/M03 A2993 RMK A01
KGWR 170435Z AUTO 21006KT 10SM OVC026 M03/M03 A2993 RMK A01
KGWR 170415Z AUTO 23008KT 10SM OVC025 M03/M03 A2994 RMK A01
KGWR 170355Z AUTO 23006KT 10SM OVC026 M03/M03 A2994 RMK A01
KGWR 170335Z AUTO 25005KT 10SM OVC026 M03/M03 A2996 RMK A01
KGWR 170315Z AUTO 27005KT 10SM OVC026 M03/M03 A2996 RMK A01
KGWR 170255Z AUTO 26003KT 10SM FEW012 OVC027 M03/M03 A2997 RMK A01
KGWR 170235Z AUTO 30005KT 10SM BKN012 OVC027 M02/M02 A2997 RMK A01
KGWR 170215Z AUTO 31005KT 10SM BKN012 OVC029 M02/M02 A2997 RMK A01
KGWR 170155Z AUTO 33003KT 10SM FEW015 FEW024 OVC030 M02/M02 A2996 RMK A01
KGWR 170135Z AUTO 33005KT 10SM SCT018 OVC030 M02/M02 A2997 RMK A01
KGWR 170115Z AUTO 33005KT 10SM BKN018 BKN025 OVC030 M02/M02 A2996 RMK A01
KGWR 170055Z AUTO 32007KT 10SM BKN020 BKN025 OVC030 M02/M02 A2996 RMK A01
KGWR 170035Z AUTO 32006KT 10SM SCT021 OVC031 M02/M02 A2995 RMK A01
KGWR 170015Z AUTO 34007KT 10SM FEW022 OVC033 M02/M02 A2995 RMK A01
KGWR 162355Z AUTO 34010KT 10SM FEW025 OVC034 M02/M02 A2995 RMK A01
KGWR 162335Z AUTO 32010KT 10SM SCT026 OVC033 M02/M02 A2996 RMK A01
KGWR 162315Z AUTO 33009KT 10SM OVC035 M02/M02 A2995 RMK A01
KGWR 162255Z AUTO 34011KT 10SM OVC037 M01/M01 A2995 RMK A01
KGWR 162235Z AUTO 33009KT 10SM OVC040 M01/M01 A2994 RMK A01